Noyabr'sk, Russia
Current Conditions -  °F | °C
As of 10:00 PM on Friday 28 Nov 2014 (Local Time) from USRR Reporting Station
Broken Clouds Broken Clouds  
Wind Chill: -26°   Ceiling: 15000
Heat Index: -11°   Visibility: 4mi
Dew Point: -20°   Wind: 7mph
Humidity: 64%   Direction: 190°S
Pressure: 30.45"   Gusts: NA
Location:  64.34°N, 76.21°E
Report Text: USRR 281700Z 19003MPS 7000 BKN150 M24/M29 Q1031 NOSIG RMKQFE768 25////60
Loading
Personal Weather Stations






























Interactive Weather Map New forecast layout! Learn more

10-Day Weather Forecast

Advertisements
Track Severe Weather on mobile